< Typhoon 201922 2019 Season Typhoon 201924 >
Typhoon 201923 (HALONG)
General InformationTrack Information on Google MapsDetailed Wind InformationForecast History on Google MapsAccess Analytics MapList of All Images || NewsDisaster Info.WeblogTrackbackTyphoon FrontTwiphoonTyphoon Now!Typhoon ImaginationJMA Disaster Info. XMLResourceGoogle EarthGE AnimationAtom FeedGeoJSON
Detalied Best Track (Time Zone = UTC)
Year Month Day Hour Lat. Long. Pressure (hPa) Wind (kt) Class Image Chart
2019 11 1 12 9.6 162.2 1004 0 2 Image Chart
2019 11 1 18 10.7 160.8 1004 0 2 Image Chart
2019 11 2 00 11.7 159.7 1004 0 2 Image Chart
2019 11 2 06 12.6 158.6 1002 0 2 Image Chart
2019 11 2 12 13.4 157.7 1000 35 3 Image Chart
2019 11 2 18 14.0 156.9 1000 35 3 Image Chart
2019 11 3 00 14.7 155.9 1000 35 3 Image Chart
2019 11 3 06 15.4 154.8 998 40 3 Image Chart
2019 11 3 12 15.9 154.2 994 45 3 Image Chart
2019 11 3 18 16.6 153.8 992 50 4 Image Chart
2019 11 4 00 17.1 153.6 985 60 4 Image Chart
2019 11 4 06 17.8 153.2 980 65 5 Image Chart
2019 11 4 12 18.3 152.7 975 70 5 Image Chart
2019 11 4 18 18.8 152.3 960 80 5 Image Chart
2019 11 5 00 19.1 151.9 950 90 5 Image Chart
2019 11 5 06 19.7 151.3 935 100 5 Image Chart
2019 11 5 12 19.9 150.8 905 115 5 Image Chart
2019 11 5 18 20.3 150.6 905 115 5 Image Chart
2019 11 6 00 20.8 150.5 905 115 5 Image Chart
2019 11 6 06 21.2 150.5 905 115 5 Image Chart
2019 11 6 12 21.7 150.7 920 105 5 Image Chart
2019 11 6 18 22.3 151.0 940 95 5 Image Chart
2019 11 7 00 23.1 151.2 955 85 5 Image Chart
2019 11 7 06 23.9 151.5 960 80 5 Image Chart
2019 11 7 12 24.6 152.1 970 75 5 Image Chart
2019 11 7 18 25.5 153.0 975 70 5 Image Chart
2019 11 8 00 26.8 154.8 980 65 5 Image Chart
2019 11 8 06 28.1 157.0 990 55 4 Image Chart
2019 11 8 12 29.6 158.6 994 45 3 Image Chart
2019 11 8 18 30.7 159.7 1000 35 3 Image Chart
2019 11 9 00 31.2 160.8 1004 0 6 Image Chart
2019 11 9 06 31.9 162.7 1006 0 6 Image Chart
2019 11 9 12 32.3 164.7 1008 0 6 Image Chart
2019 11 9 18 32.4 166.6 1008 0 6 Image Chart
2019 11 10 00 32.5 168.4 1008 0 6 Image Chart
2019 11 10 06 32.7 170.2 1008 0 6 Image Chart
Japan Meteorological Agency Best Track Data | Correction Date : 2019-12-24
< Typhoon 201922 2019 Season Typhoon 201924 >

Help